LEGELEVX

Guest
Details From LEGE - Girona
To LEVX - Vigo
Flight Number -
Tags Generated
Created
Modified
Stats Distance 508 nm / 941 km
Max Altitude 0 ft / 0 m
Waypoints 4
Social Downloads 3
Likes 0
Share VATSIM

Download

Looking for another format? Having issues loading an existing format? Contact us
Advertisement - Login to hide

Notes

Generated

Route

LEGE VABAR BIRMI LEVX

ID Type Via Altitude Latitude Longitude Leg Dist Tot Dist Heading (true) Name
O LEGE APT - 0 ft / 0 m 41.89491˚ 2.75826˚ - 0 nm - -
VABAR FIX - 0 ft / 0 m 42.17100˚ -2.61533˚ 240 nm 240 nm 276° / 272° -
BIRMI FIX - 0 ft / 0 m 42.29444˚ -8.19894˚ 248 nm 488 nm 274° / 270° -
O LEVX APT - 0 ft / 0 m 42.22128˚ -8.62966˚ 19 nm 508 nm 257° / 257° -

Altitude Profile

Advertisement - Login to hide

Weather


0- 5 10 15 20 25 30 35+ Temperature / ° C

Clouds and Precipitation
Forecast for 2017-12-11 12:00 UTC. Updated 27 minutes ago

Ground ~20,000 ft ~40,000 ft Winds

LEGE

Details ICAO LEGE (GRO)
Name Girona
Region Spain
Timezone Europe/Madrid (UTC+1.0)
Stats Elevation 403 ft / 123 m (AMSL)
Location 41.905202° 2.762133°
Runways 1
Magnetic Variation 0.976° E

METAR

LEGE 111130Z 25011KT 190V300 9999 FEW035 SCT058 14/07 Q0988

Decode

TAF

TAF LEGE 110500Z 1106/1206 20015KT 9999 FEW030 TX13/1106Z TN06/1124Z PROB30 TEMPO 1106/1111 20022G43KT TEMPO 1112/1119 4000 RA BECMG 1110/1113 VRB04KT

Decode

Departure Runways

ID Width Length Bearing (true) Bearing (mag) Surface Threshold Offset Overrun Length
02 148 ft / 45 m 7,880 ft / 2,402 m 15.50° 14.52° Asphalt 0 ft / 0 m 210 ft / 64 m
20 148 ft / 45 m 7,880 ft / 2,402 m 195.50° 194.52° Asphalt 0 ft / 0 m 200 ft / 61 m

LEVX

Details ICAO LEVX (VGO)
Name Vigo
Region Spain
Timezone Europe/Madrid (UTC+1.0)
Stats Elevation 855 ft / 261 m (AMSL)
Location 42.231894° -8.626774°
Runways 1
Magnetic Variation 2.391° W

METAR

LEVX 111130Z 36012KT 330V040 9999 FEW012 SCT025 BKN034 08/06 Q0999 TEMPO 3000 SHRA SCT020CB

Decode

TAF

TAF LEVX 110500Z 1106/1206 22009KT 9000 SCT010 BKN020 TX09/1115Z TN05/1206Z PROB40 TEMPO 1106/1112 28012G22KT 3000 SHRA TSRAGR SCT020TCU SCT030CB BECMG 1108/1112 35010KT TEMPO 1111/1119 33015G25KT SHRA SCT030TCU

Decode

Destination Runways

ID Width Length Bearing (true) Bearing (mag) Surface Threshold Offset Overrun Length
02 148 ft / 45 m 7,905 ft / 2,409 m 11.38° 13.77° Asphalt 0 ft / 0 m 164 ft / 50 m
20 148 ft / 45 m 7,905 ft / 2,409 m 191.38° 193.77° Asphalt 0 ft / 0 m 164 ft / 50 m

Approach Navaids

Runway Type Ident Frequency Range Bearing (true) Bearing (mag) Slope Elevation
20 Localiser VIG 110.90 MHz 18 nm / 33 km 191.38° 193.77° - 855 ft / 261 m (AMSL)
20 Glidescope VIG 110.90 MHz 10 nm / 19 km 191.38° 193.77° 3.00° 855 ft / 261 m (AMSL)
20 DME VIG 110.90 MHz 18 nm / 33 km - - - 833 ft / 254 m (AMSL)

Popular Alternatives